Time;durP1;ratioP1;P1;durP2;ratioP2;P2;SDS_P1;SDS_P2;PMS_P1;PMS_P2;Temp;Humidity;BMP_temperature;BMP_pressure;BME280_temperature;BME280_humidity;BME280_pressure;Samples;Min_cycle;Max_cycle;Signal;HPM_P1;HPM_P2
2023/02/14 00:01:40;;;;;;;3.50;2.70;;;;;;;;;;5102569;28;20044;-69
2023/02/14 00:04:10;;;;;;;4.82;2.38;;;;;;;;;;5081467;28;20033;-71
2023/02/14 00:06:39;;;;;;;9.45;3.17;;;;;;;;;;5087611;28;20051;-71
2023/02/14 00:09:09;;;;;;;4.88;1.98;;;;;;;;;;5086935;28;20051;-71
2023/02/14 00:11:38;;;;;;;4.35;2.20;;;;;;;;;;5087686;28;20455;-71
2023/02/14 00:16:53;;;;;;;5.10;1.60;;;;;;;;;;5081451;28;20143;-71
2023/02/14 00:19:23;;;;;;;4.90;2.35;;;;;;;;;;5088208;28;20157;-71
2023/02/14 00:21:52;;;;;;;3.05;1.95;;;;;;;;;;5122694;28;20046;-71
2023/02/14 00:24:21;;;;;;;5.10;1.65;;;;;;;;;;5127775;28;20047;-71
2023/02/14 00:26:50;;;;;;;3.08;1.80;;;;;;;;;;5119964;28;20043;-70
2023/02/14 00:29:19;;;;;;;4.88;1.60;;;;;;;;;;5121309;28;20510;-71
2023/02/14 00:31:47;;;;;;;6.82;2.38;;;;;;;;;;5128523;27;20069;-70
2023/02/14 00:34:16;;;;;;;4.57;2.22;;;;;;;;;;5123665;28;20050;-71
2023/02/14 00:36:46;;;;;;;6.57;2.70;;;;;;;;;;5126292;28;20047;-71
2023/02/14 00:39:15;;;;;;;3.47;1.83;;;;;;;;;;5121834;28;20089;-71
2023/02/14 00:41:44;;;;;;;3.20;2.25;;;;;;;;;;5128463;28;20134;-71
2023/02/14 00:44:13;;;;;;;5.18;2.25;;;;;;;;;;5115339;28;20055;-71
2023/02/14 00:46:42;;;;;;;4.85;2.45;;;;;;;;;;5113031;28;20126;-71
2023/02/14 00:49:10;;;;;;;1.27;1.15;;;;;;;;;;5117158;28;20055;-72
2023/02/14 00:51:38;;;;;;;2.30;1.38;;;;;;;;;;5126761;28;20039;-71
2023/02/14 00:54:08;;;;;;;4.18;2.50;;;;;;;;;;5121713;27;20131;-71
2023/02/14 00:56:36;;;;;;;4.50;2.25;;;;;;;;;;5123308;28;20051;-71
2023/02/14 00:59:04;;;;;;;2.42;1.40;;;;;;;;;;5120848;28;20488;-72
2023/02/14 01:01:33;;;;;;;4.55;2.28;;;;;;;;;;5128958;28;20403;-71
2023/02/14 01:04:01;;;;;;;6.45;2.63;;;;;;;;;;5128182;28;20049;-71
2023/02/14 01:06:29;;;;;;;4.38;1.92;;;;;;;;;;5128126;28;20055;-71
2023/02/14 01:08:58;;;;;;;3.53;1.50;;;;;;;;;;5125647;28;20051;-71
2023/02/14 01:11:28;;;;;;;4.72;2.17;;;;;;;;;;5128601;28;20514;-71
2023/02/14 01:13:58;;;;;;;4.55;2.42;;;;;;;;;;5117026;28;20051;-71
2023/02/14 01:16:27;;;;;;;1.60;1.50;;;;;;;;;;5130616;27;20049;-71
2023/02/14 01:18:56;;;;;;;2.30;1.58;;;;;;;;;;5124866;27;20110;-69
2023/02/14 01:21:25;;;;;;;1.88;1.77;;;;;;;;;;5129779;27;20047;-71
2023/02/14 01:23:54;;;;;;;2.08;1.85;;;;;;;;;;5120082;27;20043;-71
2023/02/14 01:26:24;;;;;;;1.10;1.02;;;;;;;;;;5127382;27;20043;-71
2023/02/14 01:28:54;;;;;;;3.05;2.58;;;;;;;;;;5130391;27;20047;-71
2023/02/14 01:31:23;;;;;;;1.02;1.02;;;;;;;;;;5129767;27;20548;-71
2023/02/14 01:33:52;;;;;;;3.85;2.33;;;;;;;;;;5117425;27;20058;-71
2023/02/14 01:36:22;;;;;;;2.72;1.77;;;;;;;;;;5126221;27;20536;-71
2023/02/14 01:38:52;;;;;;;6.45;1.92;;;;;;;;;;5127154;27;20047;-71
2023/02/14 01:41:20;;;;;;;6.15;1.73;;;;;;;;;;5131242;27;20058;-71
2023/02/14 01:43:55;;;;;;;5.05;1.98;;;;;;;;;;5128257;27;20043;-71
2023/02/14 01:46:24;;;;;;;1.80;0.90;;;;;;;;;;5120287;27;20039;-71
2023/02/14 01:48:54;;;;;;;1.02;0.65;;;;;;;;;;5127526;27;20059;-71
2023/02/14 01:51:24;;;;;;;3.78;3.15;;;;;;;;;;5130149;27;20051;-71
2023/02/14 01:53:52;;;;;;;3.80;2.13;;;;;;;;;;5131054;27;20047;-71
2023/02/14 01:56:24;;;;;;;2.40;1.77;;;;;;;;;;5131968;27;20050;-71
2023/02/14 01:58:55;;;;;;;4.68;2.92;;;;;;;;;;5133975;27;20051;-71
2023/02/14 02:01:24;;;;;;;1.45;1.20;;;;;;;;;;5134076;27;20047;-71
2023/02/14 02:03:54;;;;;;;4.63;2.10;;;;;;;;;;5120219;27;20051;-71
2023/02/14 02:06:24;;;;;;;5.15;2.25;;;;;;;;;;5128276;27;20051;-71
2023/02/14 02:08:56;;;;;;;7.18;3.30;;;;;;;;;;5133593;27;20061;-71
2023/02/14 02:11:24;;;;;;;2.88;1.52;;;;;;;;;;5128155;27;20050;-71
2023/02/14 02:13:52;;;;;;;2.05;1.65;;;;;;;;;;5124290;27;20047;-71
2023/02/14 02:16:28;;;;;;;1.55;1.00;;;;;;;;;;5128969;27;20102;-71
2023/02/14 02:19:05;;;;;;;4.70;2.25;;;;;;;;;;5127472;27;20046;-71
2023/02/14 02:21:49;;;;;;;2.22;1.70;;;;;;;;;;5122985;27;20075;-71
2023/02/14 02:24:22;;;;;;;3.05;1.45;;;;;;;;;;5132012;27;20051;-71
2023/02/14 02:27:07;;;;;;;3.13;1.27;;;;;;;;;;5131671;27;20047;-71
2023/02/14 02:29:50;;;;;;;3.63;2.17;;;;;;;;;;5119418;27;20135;-71
2023/02/14 02:32:39;;;;;;;5.32;1.10;;;;;;;;;;5121148;27;20157;-72
2023/02/14 02:35:13;;;;;;;2.63;1.40;;;;;;;;;;5122992;27;20066;-71
2023/02/14 02:37:43;;;;;;;2.63;2.40;;;;;;;;;;5129326;27;20050;-71
2023/02/14 02:40:18;;;;;;;8.07;1.50;;;;;;;;;;5131235;27;20047;-72
2023/02/14 02:42:49;;;;;;;3.20;2.28;;;;;;;;;;5132343;27;20046;-72
2023/02/14 02:45:24;;;;;;;1.52;1.30;;;;;;;;;;5124872;27;20055;-71
2023/02/14 02:47:55;;;;;;;3.25;1.40;;;;;;;;;;5128428;27;20046;-71
2023/02/14 02:53:17;;;;;;;5.25;1.75;;;;;;;;;;5130227;27;20050;-70
2023/02/14 02:58:35;;;;;;;9.90;1.88;;;;;;;;;;5130048;27;20448;-70
2023/02/14 03:01:07;;;;;;;3.78;1.75;;;;;;;;;;5126492;27;20054;-71
2023/02/14 03:06:24;;;;;;;0.75;0.75;;;;;;;;;;5121997;27;20053;-71
2023/02/14 03:08:52;;;;;;;1.13;0.75;;;;;;;;;;5122526;27;20055;-72
2023/02/14 03:11:20;;;;;;;1.73;1.40;;;;;;;;;;5122297;27;20051;-71
2023/02/14 03:13:57;;;;;;;2.78;2.25;;;;;;;;;;5117553;27;20484;-71
2023/02/14 03:16:30;;;;;;;3.83;2.30;;;;;;;;;;5119225;27;20039;-71
2023/02/14 03:22:19;;;;;;;3.92;1.70;;;;;;;;;;5117558;27;20051;-72
2023/02/14 03:24:55;;;;;;;1.70;1.60;;;;;;;;;;5112481;27;20051;-71
2023/02/14 03:27:26;;;;;;;1.55;1.35;;;;;;;;;;5120407;27;20140;-71
2023/02/14 03:29:57;;;;;;;3.60;1.08;;;;;;;;;;5118880;27;20047;-71
2023/02/14 03:32:30;;;;;;;0.50;0.50;;;;;;;;;;5120750;27;20044;-71
2023/02/14 03:35:01;;;;;;;3.17;2.35;;;;;;;;;;5126079;27;20043;-71
2023/02/14 03:37:33;;;;;;;7.40;2.22;;;;;;;;;;5130836;27;20047;-69
2023/02/14 03:40:04;;;;;;;3.30;3.00;;;;;;;;;;5124650;27;20039;-71
2023/02/14 03:42:35;;;;;;;0.70;0.70;;;;;;;;;;5130171;27;20078;-71
2023/02/14 03:45:05;;;;;;;2.65;1.25;;;;;;;;;;5127275;27;20047;-71
2023/02/14 03:47:35;;;;;;;1.15;1.02;;;;;;;;;;5131247;27;20055;-71
2023/02/14 03:50:05;;;;;;;2.65;1.48;;;;;;;;;;5128210;27;20047;-72
2023/02/14 03:52:35;;;;;;;3.42;1.85;;;;;;;;;;5130512;27;20051;-71
2023/02/14 03:55:05;;;;;;;4.22;1.92;;;;;;;;;;5124160;27;20062;-72
2023/02/14 03:57:38;;;;;;;1.48;1.38;;;;;;;;;;5126933;27;20423;-71
2023/02/14 04:00:07;;;;;;;2.08;1.83;;;;;;;;;;5127420;27;20055;-71
2023/02/14 04:02:36;;;;;;;6.63;2.92;;;;;;;;;;5127998;27;20043;-71
2023/02/14 04:05:08;;;;;;;3.08;2.38;;;;;;;;;;5123536;27;20133;-71
2023/02/14 04:07:46;;;;;;;2.13;0.93;;;;;;;;;;5131406;27;20051;-72
2023/02/14 04:10:14;;;;;;;1.10;1.08;;;;;;;;;;5129029;27;20047;-71
2023/02/14 04:12:43;;;;;;;2.85;1.42;;;;;;;;;;5128579;27;20127;-71
2023/02/14 04:15:12;;;;;;;1.60;1.50;;;;;;;;;;5118416;27;20051;-71
2023/02/14 04:20:26;;;;;;;2.17;1.45;;;;;;;;;;5125756;27;20047;-71
2023/02/14 04:22:56;;;;;;;3.03;2.42;;;;;;;;;;5121318;28;20050;-71
2023/02/14 04:25:24;;;;;;;6.80;2.08;;;;;;;;;;5121177;28;20043;-72
2023/02/14 04:27:53;;;;;;;4.25;1.40;;;;;;;;;;5120257;28;20043;-71
2023/02/14 04:30:21;;;;;;;1.38;1.27;;;;;;;;;;5117366;28;20047;-71
2023/02/14 04:32:50;;;;;;;3.38;1.45;;;;;;;;;;5118505;28;20086;-72
2023/02/14 04:35:18;;;;;;;1.23;1.17;;;;;;;;;;5118813;28;20058;-71
2023/02/14 04:37:47;;;;;;;2.13;2.03;;;;;;;;;;5120606;28;20054;-72
2023/02/14 04:40:16;;;;;;;2.45;1.83;;;;;;;;;;5115039;28;20044;-71
2023/02/14 04:42:44;;;;;;;1.20;1.05;;;;;;;;;;5124444;28;20052;-72
2023/02/14 04:45:13;;;;;;;1.60;0.70;;;;;;;;;;5127958;28;20046;-71
2023/02/14 04:47:41;;;;;;;3.10;2.42;;;;;;;;;;5129147;28;20411;-72
2023/02/14 04:50:10;;;;;;;2.58;2.17;;;;;;;;;;5119261;27;20051;-72
2023/02/14 04:52:38;;;;;;;5.25;1.30;;;;;;;;;;5133938;27;20040;-72
2023/02/14 04:55:07;;;;;;;0.80;0.80;;;;;;;;;;5133885;27;20471;-72
2023/02/14 04:57:37;;;;;;;3.45;3.15;;;;;;;;;;5124308;27;20042;-71
2023/02/14 05:00:06;;;;;;;0.60;0.60;;;;;;;;;;5134519;27;20051;-72
2023/02/14 05:02:34;;;;;;;1.92;1.80;;;;;;;;;;5120935;27;20384;-72
2023/02/14 05:05:02;;;;;;;1.08;0.98;;;;;;;;;;5126904;27;20043;-71
2023/02/14 05:07:30;;;;;;;1.65;1.15;;;;;;;;;;5128750;27;20392;-72
2023/02/14 05:09:59;;;;;;;1.42;1.33;;;;;;;;;;5121211;27;20035;-70
2023/02/14 05:12:27;;;;;;;4.82;1.73;;;;;;;;;;5120239;27;20130;-72
2023/02/14 05:14:57;;;;;;;3.95;2.05;;;;;;;;;;5123101;27;20039;-71
2023/02/14 05:17:25;;;;;;;2.15;1.00;;;;;;;;;;5129372;27;20279;-71
2023/02/14 05:19:53;;;;;;;0.75;0.75;;;;;;;;;;5122462;27;20058;-71
2023/02/14 05:22:22;;;;;;;0.88;0.88;;;;;;;;;;5124395;27;20044;-72
2023/02/14 05:24:50;;;;;;;2.00;1.42;;;;;;;;;;5118521;27;20039;-72
2023/02/14 05:27:18;;;;;;;0.85;0.85;;;;;;;;;;5120597;27;20058;-72
2023/02/14 05:29:46;;;;;;;1.88;1.77;;;;;;;;;;5119963;27;20039;-70
2023/02/14 05:32:16;;;;;;;1.52;1.23;;;;;;;;;;5121185;27;20048;-72
2023/02/14 05:34:46;;;;;;;2.78;1.00;;;;;;;;;;5124338;27;20047;-71
2023/02/14 05:37:14;;;;;;;2.67;1.15;;;;;;;;;;5118787;27;20503;-72
2023/02/14 05:39:43;;;;;;;1.75;1.52;;;;;;;;;;5123030;27;20043;-74
2023/02/14 05:42:11;;;;;;;3.13;1.13;;;;;;;;;;5126991;27;20055;-72
2023/02/14 05:44:39;;;;;;;1.60;1.20;;;;;;;;;;5116289;27;20054;-72
2023/02/14 05:47:07;;;;;;;3.63;0.65;;;;;;;;;;5123556;27;20052;-73
2023/02/14 05:49:38;;;;;;;2.45;1.75;;;;;;;;;;5111273;27;20054;-73
2023/02/14 05:52:06;;;;;;;2.55;2.08;;;;;;;;;;5121938;27;20044;-72
2023/02/14 05:54:35;;;;;;;1.65;1.00;;;;;;;;;;5117491;27;20062;-72
2023/02/14 05:57:03;;;;;;;2.00;1.63;;;;;;;;;;5116243;27;20051;-73
2023/02/14 05:59:35;;;;;;;1.27;1.23;;;;;;;;;;5125826;27;20055;-72
2023/02/14 06:02:03;;;;;;;0.60;0.60;;;;;;;;;;5115885;27;20047;-72
2023/02/14 06:04:31;;;;;;;1.15;1.05;;;;;;;;;;5112981;27;20043;-72
2023/02/14 06:07:01;;;;;;;4.30;2.00;;;;;;;;;;5117389;27;20043;-72
2023/02/14 06:09:29;;;;;;;2.38;1.95;;;;;;;;;;5122868;27;20047;-72
2023/02/14 06:11:58;;;;;;;1.95;1.77;;;;;;;;;;5117504;27;20423;-73
2023/02/14 06:14:26;;;;;;;0.77;0.55;;;;;;;;;;5125067;27;20050;-73
2023/02/14 06:16:55;;;;;;;0.25;0.25;;;;;;;;;;5120224;27;20587;-73
2023/02/14 06:19:23;;;;;;;1.40;1.13;;;;;;;;;;5123966;27;20043;-73
2023/02/14 06:21:51;;;;;;;2.00;1.35;;;;;;;;;;5127215;27;20515;-73
2023/02/14 06:24:21;;;;;;;2.20;2.05;;;;;;;;;;5112482;27;20496;-72
2023/02/14 06:26:49;;;;;;;2.97;1.00;;;;;;;;;;5123271;27;20466;-73
2023/02/14 06:29:18;;;;;;;0.68;0.68;;;;;;;;;;5121561;27;20072;-73
2023/02/14 06:31:46;;;;;;;2.17;1.42;;;;;;;;;;5125820;27;20043;-73
2023/02/14 06:34:14;;;;;;;3.13;1.40;;;;;;;;;;5120226;27;20047;-73
2023/02/14 06:36:43;;;;;;;2.40;1.23;;;;;;;;;;5121117;27;20551;-73
2023/02/14 06:39:11;;;;;;;8.98;1.50;;;;;;;;;;5118132;27;20059;-73
2023/02/14 06:41:41;;;;;;;2.17;1.40;;;;;;;;;;5118586;27;20043;-73
2023/02/14 06:44:09;;;;;;;2.85;1.75;;;;;;;;;;5117898;27;20543;-72
2023/02/14 06:46:38;;;;;;;5.50;2.22;;;;;;;;;;5121454;27;20138;-73
2023/02/14 06:49:06;;;;;;;3.63;0.93;;;;;;;;;;5118220;27;20051;-72
2023/02/14 06:51:34;;;;;;;3.00;1.45;;;;;;;;;;5125719;27;20058;-73
2023/02/14 06:54:02;;;;;;;5.53;1.70;;;;;;;;;;5127439;27;20058;-73
2023/02/14 06:56:31;;;;;;;4.05;1.17;;;;;;;;;;5120651;27;20048;-72
2023/02/14 06:59:01;;;;;;;1.45;1.15;;;;;;;;;;5125939;27;20104;-73
2023/02/14 07:01:30;;;;;;;3.33;2.15;;;;;;;;;;5121595;27;20068;-73
2023/02/14 07:03:59;;;;;;;1.30;1.20;;;;;;;;;;5118381;27;20053;-73
2023/02/14 07:06:27;;;;;;;1.92;1.80;;;;;;;;;;5116467;27;20484;-72
2023/02/14 07:08:55;;;;;;;2.83;1.10;;;;;;;;;;5118420;27;20035;-72
2023/02/14 07:11:25;;;;;;;5.18;2.13;;;;;;;;;;5110969;27;20051;-71
2023/02/14 07:13:53;;;;;;;2.20;1.58;;;;;;;;;;5122662;27;20071;-72
2023/02/14 07:16:23;;;;;;;1.13;0.75;;;;;;;;;;5115245;27;20126;-71
2023/02/14 07:18:52;;;;;;;0.98;0.85;;;;;;;;;;5110023;27;20126;-72
2023/02/14 07:21:20;;;;;;;1.85;1.20;;;;;;;;;;5114779;27;20047;-72
2023/02/14 07:23:48;;;;;;;0.68;0.68;;;;;;;;;;5126448;27;20476;-72
2023/02/14 07:26:17;;;;;;;1.27;1.17;;;;;;;;;;5122921;27;20366;-71
2023/02/14 07:28:47;;;;;;;1.88;1.58;;;;;;;;;;5111770;27;20127;-71
2023/02/14 07:31:17;;;;;;;1.65;1.10;;;;;;;;;;5118248;27;20481;-72
2023/02/14 07:33:46;;;;;;;1.13;1.02;;;;;;;;;;5109750;27;20052;-71
2023/02/14 07:36:15;;;;;;;1.27;1.15;;;;;;;;;;5116610;27;20408;-72
2023/02/14 07:38:43;;;;;;;2.10;1.60;;;;;;;;;;5111693;27;20130;-70
2023/02/14 07:41:12;;;;;;;1.95;1.75;;;;;;;;;;5111398;27;20054;-72
2023/02/14 07:43:40;;;;;;;1.75;1.65;;;;;;;;;;5117813;27;20085;-72
2023/02/14 07:46:09;;;;;;;2.35;1.80;;;;;;;;;;5128390;27;20045;-72
2023/02/14 07:48:38;;;;;;;5.18;1.23;;;;;;;;;;5119175;27;20059;-71
2023/02/14 07:51:07;;;;;;;0.75;0.63;;;;;;;;;;5120597;27;20061;-71
2023/02/14 07:53:36;;;;;;;1.00;0.77;;;;;;;;;;5122110;27;20129;-75
2023/02/14 07:56:04;;;;;;;0.93;0.93;;;;;;;;;;5115252;27;20150;-74
2023/02/14 07:58:32;;;;;;;4.28;1.27;;;;;;;;;;5124830;27;20043;-75
2023/02/14 08:01:01;;;;;;;1.20;1.00;;;;;;;;;;5130224;27;20533;-75
2023/02/14 08:03:30;;;;;;;2.08;1.38;;;;;;;;;;5113252;27;20055;-74
2023/02/14 08:05:58;;;;;;;1.13;1.05;;;;;;;;;;5123714;27;20055;-74
2023/02/14 08:08:29;;;;;;;7.45;1.00;;;;;;;;;;5118717;27;20100;-74
2023/02/14 08:10:58;;;;;;;1.45;1.27;;;;;;;;;;5126444;27;20089;-74
2023/02/14 08:13:27;;;;;;;2.00;1.30;;;;;;;;;;5117061;27;20051;-75
2023/02/14 08:16:04;;;;;;;2.45;1.77;;;;;;;;;;5129404;27;20055;-74
2023/02/14 08:18:33;;;;;;;1.70;1.30;;;;;;;;;;5112090;28;20050;-74
2023/02/14 08:21:02;;;;;;;0.45;0.45;;;;;;;;;;5124437;27;20055;-74
2023/02/14 08:23:32;;;;;;;1.38;0.98;;;;;;;;;;5120382;28;20051;-74
2023/02/14 08:26:01;;;;;;;1.50;0.90;;;;;;;;;;5125867;27;20047;-75
2023/02/14 08:28:31;;;;;;;1.02;0.90;;;;;;;;;;5125226;28;20043;-74
2023/02/14 08:31:01;;;;;;;3.20;1.20;;;;;;;;;;5129098;28;20084;-74
2023/02/14 08:33:30;;;;;;;0.57;0.55;;;;;;;;;;5125643;28;20479;-75
2023/02/14 08:35:59;;;;;;;3.28;0.93;;;;;;;;;;5122342;28;20134;-74
2023/02/14 08:38:27;;;;;;;1.05;0.85;;;;;;;;;;5122993;28;20044;-75
2023/02/14 08:40:59;;;;;;;0.95;0.95;;;;;;;;;;5128892;28;21150;-75
2023/02/14 08:43:29;;;;;;;0.85;0.85;;;;;;;;;;5125782;28;20047;-75
2023/02/14 08:46:00;;;;;;;6.28;1.55;;;;;;;;;;5128540;28;20051;-74
2023/02/14 08:48:29;;;;;;;2.63;0.80;;;;;;;;;;5122535;28;20047;-75
2023/02/14 08:50:57;;;;;;;1.05;1.02;;;;;;;;;;5111968;28;20090;-74
2023/02/14 08:53:26;;;;;;;1.58;1.15;;;;;;;;;;5119861;28;20079;-74
2023/02/14 08:55:56;;;;;;;4.70;1.58;;;;;;;;;;5111695;28;20109;-74
2023/02/14 08:58:25;;;;;;;1.70;1.25;;;;;;;;;;5118251;28;20051;-74
2023/02/14 09:00:54;;;;;;;4.60;2.38;;;;;;;;;;5119739;28;20044;-74
2023/02/14 09:03:23;;;;;;;3.58;1.60;;;;;;;;;;5119596;28;20047;-74
2023/02/14 09:05:51;;;;;;;2.33;1.38;;;;;;;;;;5118446;28;20090;-73
2023/02/14 09:08:20;;;;;;;1.38;1.27;;;;;;;;;;5122095;28;20039;-74
2023/02/14 09:10:52;;;;;;;4.35;2.35;;;;;;;;;;5117757;28;20039;-74
2023/02/14 09:13:21;;;;;;;1.05;1.00;;;;;;;;;;5116849;28;20098;-74
2023/02/14 09:15:50;;;;;;;1.15;1.13;;;;;;;;;;5120736;28;20040;-75
2023/02/14 09:18:18;;;;;;;1.38;1.27;;;;;;;;;;5125711;28;20074;-74
2023/02/14 09:20:47;;;;;;;1.50;0.90;;;;;;;;;;5127523;28;20134;-75
2023/02/14 09:23:15;;;;;;;9.27;2.45;;;;;;;;;;5130541;28;20068;-74
2023/02/14 09:25:44;;;;;;;2.92;1.38;;;;;;;;;;5119780;28;20043;-74
2023/02/14 09:28:13;;;;;;;1.33;1.27;;;;;;;;;;5111075;28;20046;-74
2023/02/14 09:30:43;;;;;;;1.42;1.33;;;;;;;;;;5127790;28;20047;-75
2023/02/14 09:33:11;;;;;;;2.83;0.90;;;;;;;;;;5114830;27;20458;-72
2023/02/14 09:35:40;;;;;;;1.73;1.20;;;;;;;;;;5128346;27;20040;-74
2023/02/14 09:38:19;;;;;;;2.47;2.17;;;;;;;;;;5130825;27;20067;-76
2023/02/14 09:40:49;;;;;;;4.57;2.13;;;;;;;;;;5125680;27;20070;-75
2023/02/14 09:43:22;;;;;;;1.30;1.02;;;;;;;;;;5132196;27;20130;-74
2023/02/14 09:45:53;;;;;;;1.63;1.50;;;;;;;;;;5129652;27;20550;-75
2023/02/14 09:48:25;;;;;;;3.90;2.95;;;;;;;;;;5132503;27;20493;-73
2023/02/14 09:50:56;;;;;;;2.60;1.50;;;;;;;;;;5132280;27;20483;-74
2023/02/14 09:53:27;;;;;;;1.50;1.40;;;;;;;;;;5123884;27;20384;-74
2023/02/14 09:55:58;;;;;;;1.67;1.58;;;;;;;;;;5120218;27;20138;-74
2023/02/14 09:58:30;;;;;;;1.58;1.48;;;;;;;;;;5118478;27;20043;-74
2023/02/14 10:01:04;;;;;;;5.25;3.03;;;;;;;;;;5131840;27;20059;-73
2023/02/14 10:03:37;;;;;;;2.38;1.60;;;;;;;;;;5124214;27;20077;-74
2023/02/14 10:06:13;;;;;;;1.65;1.55;;;;;;;;;;5120690;27;20047;-73
2023/02/14 10:08:48;;;;;;;1.30;1.20;;;;;;;;;;5132222;27;20051;-75
2023/02/14 10:11:19;;;;;;;1.27;1.17;;;;;;;;;;5126287;27;20044;-77
2023/02/14 10:13:49;;;;;;;2.35;1.63;;;;;;;;;;5125764;27;20440;-77
2023/02/14 10:16:23;;;;;;;4.63;1.80;;;;;;;;;;5121000;27;20059;-76
2023/02/14 10:18:56;;;;;;;4.07;2.03;;;;;;;;;;5123150;27;20062;-75
2023/02/14 10:21:26;;;;;;;2.30;1.48;;;;;;;;;;5123569;27;20051;-76
2023/02/14 10:23:58;;;;;;;1.33;0.98;;;;;;;;;;5127464;27;20150;-74
2023/02/14 10:26:28;;;;;;;8.85;2.80;;;;;;;;;;5128319;27;20052;-77
2023/02/14 10:28:57;;;;;;;5.40;2.22;;;;;;;;;;5131330;27;20051;-75
2023/02/14 10:31:27;;;;;;;1.50;0.93;;;;;;;;;;5128980;27;20047;-76
2023/02/14 10:33:57;;;;;;;8.35;2.38;;;;;;;;;;5132511;27;20089;-75
2023/02/14 10:36:36;;;;;;;4.75;2.85;;;;;;;;;;5132641;27;20549;-74
2023/02/14 10:39:10;;;;;;;4.28;3.13;;;;;;;;;;5126319;27;20126;-74
2023/02/14 10:41:43;;;;;;;6.97;2.78;;;;;;;;;;5129931;27;20403;-75
2023/02/14 10:44:19;;;;;;;7.85;2.20;;;;;;;;;;5128838;27;20054;-76
2023/02/14 10:46:52;;;;;;;5.68;2.80;;;;;;;;;;5125854;27;20043;-76
2023/02/14 10:49:28;;;;;;;7.00;3.22;;;;;;;;;;5128285;27;20046;-76
2023/02/14 10:51:57;;;;;;;8.23;3.65;;;;;;;;;;5130493;27;20059;-75
2023/02/14 10:54:27;;;;;;;8.45;2.83;;;;;;;;;;5133569;27;20130;-76
2023/02/14 10:57:00;;;;;;;9.75;3.70;;;;;;;;;;5128989;27;20570;-76
2023/02/14 10:59:31;;;;;;;4.03;2.70;;;;;;;;;;5129648;27;20458;-75
2023/02/14 11:02:01;;;;;;;2.85;2.22;;;;;;;;;;5127734;27;21376;-76
2023/02/14 11:04:32;;;;;;;3.50;2.15;;;;;;;;;;5127994;27;20049;-76
2023/02/14 11:07:00;;;;;;;7.53;3.28;;;;;;;;;;5133234;27;20043;-76
2023/02/14 11:09:28;;;;;;;4.43;2.70;;;;;;;;;;5128582;27;20043;-74
2023/02/14 11:11:59;;;;;;;2.78;2.15;;;;;;;;;;5134992;27;20432;-76
2023/02/14 11:14:28;;;;;;;8.85;3.58;;;;;;;;;;5135890;27;20042;-75
2023/02/14 11:16:58;;;;;;;6.97;2.90;;;;;;;;;;5132128;27;20533;-75
2023/02/14 11:19:28;;;;;;;2.70;1.85;;;;;;;;;;5134660;27;20074;-76
2023/02/14 11:21:58;;;;;;;7.00;2.88;;;;;;;;;;5134877;27;20047;-76
2023/02/14 11:24:28;;;;;;;4.60;2.50;;;;;;;;;;5130507;27;20053;-76
2023/02/14 11:26:58;;;;;;;7.18;3.13;;;;;;;;;;5135390;27;20101;-76
2023/02/14 11:29:28;;;;;;;4.70;2.80;;;;;;;;;;5136476;27;20043;-76
2023/02/14 11:31:57;;;;;;;7.78;3.55;;;;;;;;;;5132875;27;20043;-77
2023/02/14 11:34:32;;;;;;;5.53;2.55;;;;;;;;;;5124757;27;20047;-76
2023/02/14 11:37:02;;;;;;;7.38;3.45;;;;;;;;;;5130067;27;20082;-77
2023/02/14 11:39:32;;;;;;;6.90;2.25;;;;;;;;;;5131166;27;20047;-76
2023/02/14 11:42:02;;;;;;;4.50;1.95;;;;;;;;;;5134389;27;20126;-77
2023/02/14 11:44:32;;;;;;;5.75;1.88;;;;;;;;;;5133018;27;20054;-77
2023/02/14 11:47:15;;;;;;;9.35;2.30;;;;;;;;;;5120416;27;20142;-78
2023/02/14 11:49:54;;;;;;;10.52;3.67;;;;;;;;;;5130393;27;20074;-74
2023/02/14 11:52:25;;;;;;;6.75;3.15;;;;;;;;;;5119468;27;20126;-78
2023/02/14 11:54:54;;;;;;;2.95;1.80;;;;;;;;;;5128249;27;20054;-78
2023/02/14 11:57:26;;;;;;;3.28;1.35;;;;;;;;;;5127318;27;20395;-77
2023/02/14 11:59:55;;;;;;;6.03;3.08;;;;;;;;;;5121130;27;20056;-77
2023/02/14 12:02:26;;;;;;;5.75;1.83;;;;;;;;;;5126147;27;20402;-78
2023/02/14 12:04:57;;;;;;;2.83;2.20;;;;;;;;;;5128130;27;20043;-77
2023/02/14 12:07:27;;;;;;;5.25;3.00;;;;;;;;;;5126902;27;20066;-77
2023/02/14 12:10:09;;;;;;;15.73;2.67;;;;;;;;;;5125730;27;20043;-76
2023/02/14 12:12:38;;;;;;;7.28;2.53;;;;;;;;;;5126907;27;21025;-78
2023/02/14 12:15:23;;;;;;;20.25;2.63;;;;;;;;;;5129939;27;20134;-78
2023/02/14 12:18:22;;;;;;;2.60;1.83;;;;;;;;;;5127971;27;20035;-77
2023/02/14 12:20:55;;;;;;;6.15;2.60;;;;;;;;;;5128293;27;20051;-77
2023/02/14 12:23:26;;;;;;;4.82;3.22;;;;;;;;;;5122723;27;20047;-76
2023/02/14 12:25:58;;;;;;;3.67;2.08;;;;;;;;;;5129936;27;20126;-77
2023/02/14 12:28:37;;;;;;;6.97;3.10;;;;;;;;;;5127836;27;20496;-78
2023/02/14 12:31:10;;;;;;;5.70;2.30;;;;;;;;;;5133094;27;20043;-76
2023/02/14 12:33:39;;;;;;;3.45;2.55;;;;;;;;;;5124695;28;20487;-77
2023/02/14 12:39:45;;;;;;;5.55;3.35;;;;;;;;;;5112027;28;20050;-77
2023/02/14 12:42:24;;;;;;;7.90;2.72;;;;;;;;;;5132952;27;20077;-77
2023/02/14 12:44:57;;;;;;;9.20;2.30;;;;;;;;;;5128379;28;20130;-75
2023/02/14 12:47:32;;;;;;;5.75;1.50;;;;;;;;;;5132592;27;20585;-78
2023/02/14 12:50:14;;;;;;;5.22;2.78;;;;;;;;;;5134944;27;20051;-75
2023/02/14 12:52:57;;;;;;;4.10;1.95;;;;;;;;;;5119994;28;20043;-78
2023/02/14 12:55:33;;;;;;;7.07;4.07;;;;;;;;;;5138733;27;20066;-77
2023/02/14 12:58:05;;;;;;;4.38;2.90;;;;;;;;;;5126895;27;20398;-77
2023/02/14 13:00:43;;;;;;;6.45;3.38;;;;;;;;;;5119479;28;20138;-74
2023/02/14 13:03:34;;;;;;;5.20;2.35;;;;;;;;;;5115173;27;20062;-82
2023/02/14 13:06:05;;;;;;;9.48;3.40;;;;;;;;;;5124822;28;20055;-79
2023/02/14 13:08:46;;;;;;;4.20;2.72;;;;;;;;;;5124886;27;20067;-76
2023/02/14 13:11:20;;;;;;;6.47;2.05;;;;;;;;;;5114815;28;20055;-79
2023/02/14 13:14:17;;;;;;;4.40;2.03;;;;;;;;;;5125879;27;20436;-80
2023/02/14 13:16:49;;;;;;;8.20;2.70;;;;;;;;;;5129171;27;20430;-79
2023/02/14 13:19:26;;;;;;;5.82;2.78;;;;;;;;;;5122245;27;20052;-77
2023/02/14 13:21:55;;;;;;;5.63;3.88;;;;;;;;;;5125084;27;20127;-75
2023/02/14 13:24:29;;;;;;;9.23;2.88;;;;;;;;;;5124720;27;20480;-79
2023/02/14 13:27:01;;;;;;;3.58;2.72;;;;;;;;;;5130157;27;20086;-78
2023/02/14 13:29:33;;;;;;;5.88;1.85;;;;;;;;;;5123925;27;20055;-78
2023/02/14 13:32:02;;;;;;;11.05;3.13;;;;;;;;;;5126430;27;20043;-77
2023/02/14 13:34:32;;;;;;;7.25;2.90;;;;;;;;;;5125783;27;20044;-77
2023/02/14 13:37:02;;;;;;;7.00;4.07;;;;;;;;;;5128209;27;20055;-79
2023/02/14 13:39:34;;;;;;;5.57;2.78;;;;;;;;;;5129022;27;20670;-79
2023/02/14 13:42:08;;;;;;;5.30;2.88;;;;;;;;;;5128832;27;20072;-78
2023/02/14 13:44:43;;;;;;;5.25;3.03;;;;;;;;;;5115003;28;20547;-78
2023/02/14 13:47:17;;;;;;;3.72;1.92;;;;;;;;;;5132525;27;20038;-77
2023/02/14 13:49:51;;;;;;;7.32;2.55;;;;;;;;;;5125416;27;20402;-78
2023/02/14 13:52:38;;;;;;;7.00;3.03;;;;;;;;;;5132415;27;20047;-78
2023/02/14 13:55:07;;;;;;;8.52;3.63;;;;;;;;;;5129486;27;20423;-77
2023/02/14 13:57:40;;;;;;;7.05;3.30;;;;;;;;;;5119976;27;20119;-78
2023/02/14 14:00:38;;;;;;;7.55;3.28;;;;;;;;;;5129099;27;20059;-77
2023/02/14 14:03:08;;;;;;;8.93;2.47;;;;;;;;;;5141432;27;20056;-78
2023/02/14 14:05:57;;;;;;;3.33;2.08;;;;;;;;;;5135073;27;20388;-78
2023/02/14 14:08:43;;;;;;;7.13;2.53;;;;;;;;;;5128305;27;20460;-77
2023/02/14 14:11:12;;;;;;;;;;;;;;;;;;5131766;27;20074;-77
2023/02/14 14:14:04;;;;;;;8.07;2.67;;;;;;;;;;5128098;27;19959;-77
2023/02/14 14:16:39;;;;;;;12.23;3.90;;;;;;;;;;5104560;27;20092;-77
2023/02/14 14:19:28;;;;;;;8.75;3.40;;;;;;;;;;5124742;27;20142;-78
2023/02/14 14:22:03;;;;;;;8.50;4.57;;;;;;;;;;5126861;27;20067;-77
2023/02/14 14:24:32;;;;;;;6.32;3.17;;;;;;;;;;5122348;27;20087;-75
2023/02/14 14:27:01;;;;;;;6.22;2.95;;;;;;;;;;5131536;27;20047;-79
2023/02/14 14:29:31;;;;;;;7.93;3.28;;;;;;;;;;5131804;27;20043;-76
2023/02/14 14:32:08;;;;;;;6.35;2.78;;;;;;;;;;5132978;27;20038;-79
2023/02/14 14:34:36;;;;;;;3.33;1.80;;;;;;;;;;5132563;27;20068;-77
2023/02/14 14:37:06;;;;;;;4.70;2.33;;;;;;;;;;5128295;27;20067;-79
2023/02/14 14:39:38;;;;;;;8.20;2.97;;;;;;;;;;5124084;27;20116;-78
2023/02/14 14:42:08;;;;;;;8.98;3.65;;;;;;;;;;5130035;27;20062;-79
2023/02/14 14:44:39;;;;;;;4.03;2.35;;;;;;;;;;5119684;27;20070;-77
2023/02/14 14:47:12;;;;;;;24.92;4.50;;;;;;;;;;5133024;27;20047;-79
2023/02/14 14:49:40;;;;;;;6.95;3.13;;;;;;;;;;5131801;27;20394;-79
2023/02/14 14:52:16;;;;;;;7.63;2.38;;;;;;;;;;5121521;27;20409;-73
2023/02/14 14:54:45;;;;;;;7.72;3.45;;;;;;;;;;5125660;27;20043;-78
2023/02/14 14:57:18;;;;;;;5.75;3.10;;;;;;;;;;5124361;27;20462;-76
2023/02/14 14:59:48;;;;;;;8.18;2.97;;;;;;;;;;5125128;27;20048;-78
2023/02/14 15:02:25;;;;;;;9.75;3.40;;;;;;;;;;5129541;27;20054;-78
2023/02/14 15:04:54;;;;;;;6.18;2.67;;;;;;;;;;5127484;27;20051;-75
2023/02/14 15:07:33;;;;;;;5.38;2.50;;;;;;;;;;5126373;27;20079;-78
2023/02/14 15:10:02;;;;;;;7.68;2.15;;;;;;;;;;5126321;27;20051;-78
2023/02/14 15:15:18;;;;;;;4.82;3.75;;;;;;;;;;5126752;27;20035;-78
2023/02/14 15:17:48;;;;;;;5.68;3.28;;;;;;;;;;5131606;27;20039;-76
2023/02/14 15:20:20;;;;;;;12.70;3.63;;;;;;;;;;5124892;27;20047;-78
2023/02/14 15:22:50;;;;;;;6.47;1.95;;;;;;;;;;5126032;27;20556;-78
2023/02/14 15:25:19;;;;;;;7.93;2.78;;;;;;;;;;5119369;27;20043;-78
2023/02/14 15:28:02;;;;;;;8.90;4.15;;;;;;;;;;5116358;27;20044;-77
2023/02/14 15:30:32;;;;;;;2.90;1.95;;;;;;;;;;5122144;27;20544;-78